sensor_id;sensor_type;location;lat;lon;timestamp;temperature;humidity
62575;DHT22;70119;45.638;11.714;2023-05-20T00:00:53;24.60;53.50
62575;DHT22;70119;45.638;11.714;2023-05-20T00:03:19;24.60;53.50
62575;DHT22;70119;45.638;11.714;2023-05-20T00:05:45;24.50;53.40
62575;DHT22;70119;45.638;11.714;2023-05-20T00:08:11;24.60;53.40
62575;DHT22;70119;45.638;11.714;2023-05-20T00:10:38;24.50;53.40
62575;DHT22;70119;45.638;11.714;2023-05-20T00:13:04;24.50;53.40
62575;DHT22;70119;45.638;11.714;2023-05-20T00:15:31;24.60;53.40
62575;DHT22;70119;45.638;11.714;2023-05-20T00:17:58;24.50;53.40
62575;DHT22;70119;45.638;11.714;2023-05-20T00:20:25;24.50;53.40
62575;DHT22;70119;45.638;11.714;2023-05-20T00:22:50;24.50;53.40
62575;DHT22;70119;45.638;11.714;2023-05-20T00:25:16;24.50;53.40
62575;DHT22;70119;45.638;11.714;2023-05-20T00:27:42;24.50;53.30
62575;DHT22;70119;45.638;11.714;2023-05-20T00:30:09;24.50;53.40
62575;DHT22;70119;45.638;11.714;2023-05-20T00:32:35;24.50;53.40
62575;DHT22;70119;45.638;11.714;2023-05-20T00:35:02;24.50;53.40
62575;DHT22;70119;45.638;11.714;2023-05-20T00:37:28;24.50;53.40
62575;DHT22;70119;45.638;11.714;2023-05-20T00:39:54;24.50;53.40
62575;DHT22;70119;45.638;11.714;2023-05-20T00:42:27;24.50;53.40
62575;DHT22;70119;45.638;11.714;2023-05-20T00:44:54;24.50;53.40
62575;DHT22;70119;45.638;11.714;2023-05-20T00:47:24;24.50;53.40
62575;DHT22;70119;45.638;11.714;2023-05-20T00:49:51;24.50;53.30
62575;DHT22;70119;45.638;11.714;2023-05-20T00:52:18;24.50;53.40
62575;DHT22;70119;45.638;11.714;2023-05-20T00:54:44;24.50;53.40
62575;DHT22;70119;45.638;11.714;2023-05-20T00:57:11;24.50;53.30
62575;DHT22;70119;45.638;11.714;2023-05-20T00:59:37;24.50;53.30
62575;DHT22;70119;45.638;11.714;2023-05-20T01:02:03;24.50;53.30
62575;DHT22;70119;45.638;11.714;2023-05-20T01:04:30;24.50;53.20
62575;DHT22;70119;45.638;11.714;2023-05-20T01:06:57;24.40;53.20
62575;DHT22;70119;45.638;11.714;2023-05-20T01:09:24;24.50;53.20
62575;DHT22;70119;45.638;11.714;2023-05-20T01:11:58;24.50;53.10
62575;DHT22;70119;45.638;11.714;2023-05-20T01:14:29;24.40;53.10
62575;DHT22;70119;45.638;11.714;2023-05-20T01:17:01;24.40;53.10
62575;DHT22;70119;45.638;11.714;2023-05-20T01:19:43;24.40;53.20
62575;DHT22;70119;45.638;11.714;2023-05-20T01:22:11;24.40;53.20
62575;DHT22;70119;45.638;11.714;2023-05-20T01:24:45;24.40;53.20
62575;DHT22;70119;45.638;11.714;2023-05-20T01:27:13;24.40;53.20
62575;DHT22;70119;45.638;11.714;2023-05-20T01:29:40;24.40;53.10
62575;DHT22;70119;45.638;11.714;2023-05-20T01:32:31;24.40;53.00
62575;DHT22;70119;45.638;11.714;2023-05-20T01:34:57;24.40;53.10
62575;DHT22;70119;45.638;11.714;2023-05-20T01:37:25;24.40;53.20
62575;DHT22;70119;45.638;11.714;2023-05-20T01:39:52;24.40;53.30
62575;DHT22;70119;45.638;11.714;2023-05-20T01:42:19;24.40;53.30
62575;DHT22;70119;45.638;11.714;2023-05-20T01:44:45;24.40;53.30
62575;DHT22;70119;45.638;11.714;2023-05-20T01:47:12;24.40;53.20
62575;DHT22;70119;45.638;11.714;2023-05-20T01:49:37;24.40;53.20
62575;DHT22;70119;45.638;11.714;2023-05-20T01:52:04;24.40;53.30
62575;DHT22;70119;45.638;11.714;2023-05-20T01:54:30;24.40;53.30
62575;DHT22;70119;45.638;11.714;2023-05-20T01:56:56;24.40;53.20
62575;DHT22;70119;45.638;11.714;2023-05-20T01:59:22;24.40;53.30
62575;DHT22;70119;45.638;11.714;2023-05-20T02:01:48;24.40;53.40
62575;DHT22;70119;45.638;11.714;2023-05-20T02:04:14;24.40;53.30
62575;DHT22;70119;45.638;11.714;2023-05-20T02:06:40;24.40;53.40
62575;DHT22;70119;45.638;11.714;2023-05-20T02:09:06;24.40;53.40
62575;DHT22;70119;45.638;11.714;2023-05-20T02:11:32;24.40;53.50
62575;DHT22;70119;45.638;11.714;2023-05-20T02:13:58;24.40;53.50
62575;DHT22;70119;45.638;11.714;2023-05-20T02:16:24;24.40;53.50
62575;DHT22;70119;45.638;11.714;2023-05-20T02:18:49;24.40;53.40
62575;DHT22;70119;45.638;11.714;2023-05-20T02:21:17;24.40;53.40
62575;DHT22;70119;45.638;11.714;2023-05-20T02:23:43;24.40;53.50
62575;DHT22;70119;45.638;11.714;2023-05-20T02:26:10;24.40;53.60
62575;DHT22;70119;45.638;11.714;2023-05-20T02:28:36;24.40;53.60
62575;DHT22;70119;45.638;11.714;2023-05-20T02:31:05;24.40;53.60
62575;DHT22;70119;45.638;11.714;2023-05-20T02:33:31;24.30;53.60
62575;DHT22;70119;45.638;11.714;2023-05-20T02:35:58;24.40;53.70
62575;DHT22;70119;45.638;11.714;2023-05-20T02:38:24;24.30;53.70
62575;DHT22;70119;45.638;11.714;2023-05-20T02:40:50;24.40;53.70
62575;DHT22;70119;45.638;11.714;2023-05-20T02:43:15;24.30;53.60
62575;DHT22;70119;45.638;11.714;2023-05-20T02:45:41;24.40;53.60
62575;DHT22;70119;45.638;11.714;2023-05-20T02:48:07;24.40;53.60
62575;DHT22;70119;45.638;11.714;2023-05-20T02:50:36;24.30;53.60
62575;DHT22;70119;45.638;11.714;2023-05-20T02:53:02;24.30;53.60
62575;DHT22;70119;45.638;11.714;2023-05-20T02:55:28;24.30;53.60
62575;DHT22;70119;45.638;11.714;2023-05-20T02:57:54;24.30;53.50
62575;DHT22;70119;45.638;11.714;2023-05-20T03:00:20;24.40;53.50
62575;DHT22;70119;45.638;11.714;2023-05-20T03:02:48;24.30;53.60
62575;DHT22;70119;45.638;11.714;2023-05-20T03:05:14;24.30;53.60
62575;DHT22;70119;45.638;11.714;2023-05-20T03:07:40;24.30;53.60
62575;DHT22;70119;45.638;11.714;2023-05-20T03:10:07;24.30;53.60
62575;DHT22;70119;45.638;11.714;2023-05-20T03:12:33;24.30;53.70
62575;DHT22;70119;45.638;11.714;2023-05-20T03:14:59;24.30;53.70
62575;DHT22;70119;45.638;11.714;2023-05-20T03:17:25;24.30;53.70
62575;DHT22;70119;45.638;11.714;2023-05-20T03:19:51;24.30;53.70
62575;DHT22;70119;45.638;11.714;2023-05-20T03:22:17;24.30;53.70
62575;DHT22;70119;45.638;11.714;2023-05-20T03:24:43;24.30;53.70
62575;DHT22;70119;45.638;11.714;2023-05-20T03:27:10;24.30;53.70
62575;DHT22;70119;45.638;11.714;2023-05-20T03:29:36;24.30;53.70
62575;DHT22;70119;45.638;11.714;2023-05-20T03:32:02;24.30;53.70
62575;DHT22;70119;45.638;11.714;2023-05-20T03:34:28;24.30;53.70
62575;DHT22;70119;45.638;11.714;2023-05-20T03:36:55;24.30;53.70
62575;DHT22;70119;45.638;11.714;2023-05-20T03:39:22;24.30;53.70
62575;DHT22;70119;45.638;11.714;2023-05-20T03:41:48;24.30;53.70
62575;DHT22;70119;45.638;11.714;2023-05-20T03:44:14;24.30;53.70
62575;DHT22;70119;45.638;11.714;2023-05-20T03:46:40;24.30;53.60
62575;DHT22;70119;45.638;11.714;2023-05-20T03:49:06;24.30;53.60
62575;DHT22;70119;45.638;11.714;2023-05-20T03:51:32;24.30;53.60
62575;DHT22;70119;45.638;11.714;2023-05-20T03:53:58;24.30;53.60
62575;DHT22;70119;45.638;11.714;2023-05-20T03:56:24;24.30;53.60
62575;DHT22;70119;45.638;11.714;2023-05-20T03:58:50;24.30;53.60
62575;DHT22;70119;45.638;11.714;2023-05-20T04:01:16;24.30;53.60
62575;DHT22;70119;45.638;11.714;2023-05-20T04:03:42;24.20;53.60
62575;DHT22;70119;45.638;11.714;2023-05-20T04:06:08;24.30;53.60
62575;DHT22;70119;45.638;11.714;2023-05-20T04:08:35;24.30;53.60
62575;DHT22;70119;45.638;11.714;2023-05-20T04:11:03;24.30;53.60
62575;DHT22;70119;45.638;11.714;2023-05-20T04:13:29;24.30;53.60
62575;DHT22;70119;45.638;11.714;2023-05-20T04:15:55;24.30;53.60
62575;DHT22;70119;45.638;11.714;2023-05-20T04:18:21;24.30;53.60
62575;DHT22;70119;45.638;11.714;2023-05-20T04:20:47;24.30;53.60
62575;DHT22;70119;45.638;11.714;2023-05-20T04:23:13;24.30;53.50
62575;DHT22;70119;45.638;11.714;2023-05-20T04:25:39;24.20;53.50
62575;DHT22;70119;45.638;11.714;2023-05-20T04:28:09;24.20;53.50
62575;DHT22;70119;45.638;11.714;2023-05-20T04:30:35;24.30;53.50
62575;DHT22;70119;45.638;11.714;2023-05-20T04:33:01;24.20;53.50
62575;DHT22;70119;45.638;11.714;2023-05-20T04:35:30;24.30;53.50
62575;DHT22;70119;45.638;11.714;2023-05-20T04:37:56;24.20;53.50
62575;DHT22;70119;45.638;11.714;2023-05-20T04:40:22;24.30;53.50
62575;DHT22;70119;45.638;11.714;2023-05-20T04:42:48;24.20;53.50
62575;DHT22;70119;45.638;11.714;2023-05-20T04:45:14;24.30;53.50
62575;DHT22;70119;45.638;11.714;2023-05-20T04:47:40;24.20;53.50
62575;DHT22;70119;45.638;11.714;2023-05-20T04:50:08;24.30;53.50
62575;DHT22;70119;45.638;11.714;2023-05-20T04:52:38;24.20;53.40
62575;DHT22;70119;45.638;11.714;2023-05-20T04:55:08;24.20;53.40
62575;DHT22;70119;45.638;11.714;2023-05-20T04:57:35;24.30;53.40
62575;DHT22;70119;45.638;11.714;2023-05-20T05:00:04;24.30;53.40
62575;DHT22;70119;45.638;11.714;2023-05-20T05:02:33;24.30;53.50
62575;DHT22;70119;45.638;11.714;2023-05-20T05:04:59;24.20;53.50
62575;DHT22;70119;45.638;11.714;2023-05-20T05:07:25;24.30;53.50
62575;DHT22;70119;45.638;11.714;2023-05-20T05:09:51;24.20;53.40
62575;DHT22;70119;45.638;11.714;2023-05-20T05:12:17;24.30;53.40
62575;DHT22;70119;45.638;11.714;2023-05-20T05:14:43;24.20;53.40
62575;DHT22;70119;45.638;11.714;2023-05-20T05:17:09;24.30;53.30
62575;DHT22;70119;45.638;11.714;2023-05-20T05:19:34;24.30;53.30
62575;DHT22;70119;45.638;11.714;2023-05-20T05:22:00;24.30;53.40
62575;DHT22;70119;45.638;11.714;2023-05-20T05:24:26;24.30;53.40
62575;DHT22;70119;45.638;11.714;2023-05-20T05:26:53;24.30;53.30
62575;DHT22;70119;45.638;11.714;2023-05-20T05:29:19;24.30;53.30
62575;DHT22;70119;45.638;11.714;2023-05-20T05:31:45;24.30;53.30
62575;DHT22;70119;45.638;11.714;2023-05-20T05:34:11;24.30;53.30
62575;DHT22;70119;45.638;11.714;2023-05-20T05:36:39;24.30;53.30
62575;DHT22;70119;45.638;11.714;2023-05-20T05:39:05;24.30;53.30
62575;DHT22;70119;45.638;11.714;2023-05-20T05:41:32;24.30;53.30
62575;DHT22;70119;45.638;11.714;2023-05-20T05:43:58;24.30;53.30
62575;DHT22;70119;45.638;11.714;2023-05-20T05:46:24;24.40;53.30
62575;DHT22;70119;45.638;11.714;2023-05-20T05:48:50;24.30;53.30
62575;DHT22;70119;45.638;11.714;2023-05-20T05:51:16;24.30;53.30
62575;DHT22;70119;45.638;11.714;2023-05-20T05:53:43;24.40;53.30
62575;DHT22;70119;45.638;11.714;2023-05-20T05:56:09;24.40;53.20
62575;DHT22;70119;45.638;11.714;2023-05-20T05:58:35;24.40;53.20
62575;DHT22;70119;45.638;11.714;2023-05-20T06:01:01;24.40;53.20
62575;DHT22;70119;45.638;11.714;2023-05-20T06:03:27;24.40;53.20
62575;DHT22;70119;45.638;11.714;2023-05-20T06:05:54;24.40;53.20
62575;DHT22;70119;45.638;11.714;2023-05-20T06:08:21;24.40;53.20
62575;DHT22;70119;45.638;11.714;2023-05-20T06:10:48;24.40;53.20
62575;DHT22;70119;45.638;11.714;2023-05-20T06:13:14;24.40;53.20
62575;DHT22;70119;45.638;11.714;2023-05-20T06:15:40;24.40;53.20
62575;DHT22;70119;45.638;11.714;2023-05-20T06:18:06;24.40;53.30
62575;DHT22;70119;45.638;11.714;2023-05-20T06:20:32;24.40;53.30
62575;DHT22;70119;45.638;11.714;2023-05-20T06:22:58;24.40;53.20
62575;DHT22;70119;45.638;11.714;2023-05-20T06:25:24;24.40;53.20
62575;DHT22;70119;45.638;11.714;2023-05-20T06:27:50;24.40;53.30
62575;DHT22;70119;45.638;11.714;2023-05-20T06:30:16;24.40;53.30
62575;DHT22;70119;45.638;11.714;2023-05-20T06:32:42;24.40;53.30
62575;DHT22;70119;45.638;11.714;2023-05-20T06:35:09;24.40;53.40
62575;DHT22;70119;45.638;11.714;2023-05-20T06:37:35;24.40;53.40
62575;DHT22;70119;45.638;11.714;2023-05-20T06:40:01;24.40;53.40
62575;DHT22;70119;45.638;11.714;2023-05-20T06:42:26;24.40;53.40
62575;DHT22;70119;45.638;11.714;2023-05-20T06:44:52;24.40;53.50
62575;DHT22;70119;45.638;11.714;2023-05-20T06:47:18;24.40;53.50
62575;DHT22;70119;45.638;11.714;2023-05-20T06:49:44;24.40;53.50
62575;DHT22;70119;45.638;11.714;2023-05-20T06:52:10;24.40;53.50
62575;DHT22;70119;45.638;11.714;2023-05-20T06:54:37;24.40;53.50
62575;DHT22;70119;45.638;11.714;2023-05-20T06:57:09;24.40;53.50
62575;DHT22;70119;45.638;11.714;2023-05-20T06:59:35;24.40;53.60
62575;DHT22;70119;45.638;11.714;2023-05-20T07:02:02;24.40;53.60
62575;DHT22;70119;45.638;11.714;2023-05-20T07:04:28;24.40;53.50
62575;DHT22;70119;45.638;11.714;2023-05-20T07:06:54;24.40;53.60
62575;DHT22;70119;45.638;11.714;2023-05-20T07:09:20;24.40;53.60
62575;DHT22;70119;45.638;11.714;2023-05-20T07:11:46;24.40;53.60
62575;DHT22;70119;45.638;11.714;2023-05-20T07:14:12;24.40;53.60
62575;DHT22;70119;45.638;11.714;2023-05-20T07:16:38;24.40;53.50
62575;DHT22;70119;45.638;11.714;2023-05-20T07:19:04;24.40;53.60
62575;DHT22;70119;45.638;11.714;2023-05-20T07:21:30;24.40;53.60
62575;DHT22;70119;45.638;11.714;2023-05-20T07:23:56;24.40;53.60
62575;DHT22;70119;45.638;11.714;2023-05-20T07:26:22;24.40;53.50
62575;DHT22;70119;45.638;11.714;2023-05-20T07:28:48;24.40;53.60
62575;DHT22;70119;45.638;11.714;2023-05-20T07:31:13;24.40;53.50
62575;DHT22;70119;45.638;11.714;2023-05-20T07:33:39;24.40;53.40
62575;DHT22;70119;45.638;11.714;2023-05-20T07:36:05;24.40;53.30
62575;DHT22;70119;45.638;11.714;2023-05-20T07:38:31;24.40;53.50
62575;DHT22;70119;45.638;11.714;2023-05-20T07:40:57;24.40;53.40
62575;DHT22;70119;45.638;11.714;2023-05-20T07:43:23;24.40;53.40
62575;DHT22;70119;45.638;11.714;2023-05-20T07:45:48;24.40;53.40
62575;DHT22;70119;45.638;11.714;2023-05-20T07:48:15;24.40;53.50
62575;DHT22;70119;45.638;11.714;2023-05-20T07:50:41;24.40;53.50
62575;DHT22;70119;45.638;11.714;2023-05-20T07:53:06;24.40;53.50
62575;DHT22;70119;45.638;11.714;2023-05-20T07:55:34;24.40;53.70
62575;DHT22;70119;45.638;11.714;2023-05-20T07:58:02;24.40;53.70
62575;DHT22;70119;45.638;11.714;2023-05-20T08:00:27;24.40;53.70
62575;DHT22;70119;45.638;11.714;2023-05-20T08:02:56;24.40;53.80
62575;DHT22;70119;45.638;11.714;2023-05-20T08:05:22;24.40;53.90
62575;DHT22;70119;45.638;11.714;2023-05-20T08:07:48;24.40;53.90
62575;DHT22;70119;45.638;11.714;2023-05-20T08:10:14;24.40;53.90
62575;DHT22;70119;45.638;11.714;2023-05-20T08:12:39;24.40;54.00
62575;DHT22;70119;45.638;11.714;2023-05-20T08:15:06;24.40;54.00
62575;DHT22;70119;45.638;11.714;2023-05-20T08:17:32;24.40;54.00
62575;DHT22;70119;45.638;11.714;2023-05-20T08:19:58;24.40;54.00
62575;DHT22;70119;45.638;11.714;2023-05-20T08:22:24;24.40;54.00
62575;DHT22;70119;45.638;11.714;2023-05-20T08:24:50;24.40;54.10
62575;DHT22;70119;45.638;11.714;2023-05-20T08:27:16;24.40;54.10
62575;DHT22;70119;45.638;11.714;2023-05-20T08:29:44;24.40;54.10
62575;DHT22;70119;45.638;11.714;2023-05-20T08:32:10;24.50;54.00
62575;DHT22;70119;45.638;11.714;2023-05-20T08:34:36;24.50;54.00
62575;DHT22;70119;45.638;11.714;2023-05-20T08:37:02;24.50;54.00
62575;DHT22;70119;45.638;11.714;2023-05-20T08:39:28;24.50;54.00
62575;DHT22;70119;45.638;11.714;2023-05-20T08:41:54;24.50;54.00
62575;DHT22;70119;45.638;11.714;2023-05-20T08:44:20;24.50;54.00
62575;DHT22;70119;45.638;11.714;2023-05-20T08:46:47;24.50;54.00
62575;DHT22;70119;45.638;11.714;2023-05-20T08:49:14;24.50;54.00
62575;DHT22;70119;45.638;11.714;2023-05-20T08:51:40;24.60;53.90
62575;DHT22;70119;45.638;11.714;2023-05-20T08:54:08;24.60;53.90
62575;DHT22;70119;45.638;11.714;2023-05-20T08:56:36;24.60;53.80
62575;DHT22;70119;45.638;11.714;2023-05-20T08:59:04;24.60;53.70
62575;DHT22;70119;45.638;11.714;2023-05-20T09:01:31;24.60;53.60
62575;DHT22;70119;45.638;11.714;2023-05-20T09:03:58;24.60;53.60
62575;DHT22;70119;45.638;11.714;2023-05-20T09:06:24;24.70;53.60
62575;DHT22;70119;45.638;11.714;2023-05-20T09:08:51;24.70;53.40
62575;DHT22;70119;45.638;11.714;2023-05-20T09:11:17;24.70;53.40
62575;DHT22;70119;45.638;11.714;2023-05-20T09:13:43;24.80;53.40
62575;DHT22;70119;45.638;11.714;2023-05-20T09:16:10;24.80;53.30
62575;DHT22;70119;45.638;11.714;2023-05-20T09:18:39;24.80;53.20
62575;DHT22;70119;45.638;11.714;2023-05-20T09:21:06;24.90;53.20
62575;DHT22;70119;45.638;11.714;2023-05-20T09:23:32;24.90;53.10
62575;DHT22;70119;45.638;11.714;2023-05-20T09:26:01;24.90;53.10
62575;DHT22;70119;45.638;11.714;2023-05-20T09:28:27;24.90;53.00
62575;DHT22;70119;45.638;11.714;2023-05-20T09:30:59;24.90;53.00
62575;DHT22;70119;45.638;11.714;2023-05-20T09:33:29;24.90;52.90
62575;DHT22;70119;45.638;11.714;2023-05-20T09:36:08;24.90;52.90
62575;DHT22;70119;45.638;11.714;2023-05-20T09:38:38;24.90;52.90
62575;DHT22;70119;45.638;11.714;2023-05-20T09:41:11;25.00;52.80
62575;DHT22;70119;45.638;11.714;2023-05-20T09:43:41;25.00;52.90
62575;DHT22;70119;45.638;11.714;2023-05-20T09:46:07;24.90;52.80
62575;DHT22;70119;45.638;11.714;2023-05-20T09:48:37;25.00;52.80
62575;DHT22;70119;45.638;11.714;2023-05-20T09:51:04;25.00;52.70
62575;DHT22;70119;45.638;11.714;2023-05-20T09:53:31;25.00;52.60
62575;DHT22;70119;45.638;11.714;2023-05-20T09:55:57;25.00;52.60
62575;DHT22;70119;45.638;11.714;2023-05-20T09:58:24;25.00;52.60
62575;DHT22;70119;45.638;11.714;2023-05-20T10:00:53;25.00;52.40
62575;DHT22;70119;45.638;11.714;2023-05-20T10:03:21;25.00;52.40
62575;DHT22;70119;45.638;11.714;2023-05-20T10:11:47;25.00;52.30
62575;DHT22;70119;45.638;11.714;2023-05-20T10:19:42;25.10;52.10
62575;DHT22;70119;45.638;11.714;2023-05-20T10:22:10;25.00;52.40
62575;DHT22;70119;45.638;11.714;2023-05-20T10:24:40;25.10;52.20
62575;DHT22;70119;45.638;11.714;2023-05-20T10:27:12;25.10;52.20
62575;DHT22;70119;45.638;11.714;2023-05-20T10:29:55;25.00;52.10
62575;DHT22;70119;45.638;11.714;2023-05-20T10:32:29;25.00;52.20
62575;DHT22;70119;45.638;11.714;2023-05-20T10:35:00;25.10;52.20
62575;DHT22;70119;45.638;11.714;2023-05-20T10:37:28;25.10;52.00
62575;DHT22;70119;45.638;11.714;2023-05-20T10:40:09;25.10;52.30
62575;DHT22;70119;45.638;11.714;2023-05-20T10:42:36;25.10;52.40
62575;DHT22;70119;45.638;11.714;2023-05-20T10:45:02;25.10;51.90
62575;DHT22;70119;45.638;11.714;2023-05-20T10:47:29;25.10;52.20
62575;DHT22;70119;45.638;11.714;2023-05-20T10:49:56;25.10;52.10
62575;DHT22;70119;45.638;11.714;2023-05-20T10:52:23;25.00;51.90
62575;DHT22;70119;45.638;11.714;2023-05-20T10:54:56;25.00;52.00
62575;DHT22;70119;45.638;11.714;2023-05-20T10:57:25;25.00;51.60
62575;DHT22;70119;45.638;11.714;2023-05-20T10:59:51;25.10;51.80
62575;DHT22;70119;45.638;11.714;2023-05-20T11:02:18;25.10;52.00
62575;DHT22;70119;45.638;11.714;2023-05-20T11:04:45;25.10;51.90
62575;DHT22;70119;45.638;11.714;2023-05-20T11:07:12;25.10;52.10
62575;DHT22;70119;45.638;11.714;2023-05-20T11:09:38;25.10;52.00
62575;DHT22;70119;45.638;11.714;2023-05-20T11:12:04;25.10;52.00
62575;DHT22;70119;45.638;11.714;2023-05-20T11:14:30;25.00;52.00
62575;DHT22;70119;45.638;11.714;2023-05-20T11:17:00;25.00;51.80
62575;DHT22;70119;45.638;11.714;2023-05-20T11:19:26;25.10;52.10
62575;DHT22;70119;45.638;11.714;2023-05-20T11:21:52;25.10;51.90
62575;DHT22;70119;45.638;11.714;2023-05-20T11:24:26;25.00;52.00
62575;DHT22;70119;45.638;11.714;2023-05-20T11:26:53;25.10;52.10
62575;DHT22;70119;45.638;11.714;2023-05-20T11:29:19;25.10;52.00
62575;DHT22;70119;45.638;11.714;2023-05-20T11:31:50;25.10;52.20
62575;DHT22;70119;45.638;11.714;2023-05-20T11:34:25;25.10;52.30
62575;DHT22;70119;45.638;11.714;2023-05-20T11:36:58;25.10;52.20
62575;DHT22;70119;45.638;11.714;2023-05-20T11:39:24;25.10;52.40
62575;DHT22;70119;45.638;11.714;2023-05-20T11:41:52;25.10;52.30
62575;DHT22;70119;45.638;11.714;2023-05-20T11:44:19;25.10;52.40
62575;DHT22;70119;45.638;11.714;2023-05-20T11:46:46;25.10;52.50
62575;DHT22;70119;45.638;11.714;2023-05-20T11:49:13;25.10;52.50
62575;DHT22;70119;45.638;11.714;2023-05-20T11:51:39;25.10;52.50
62575;DHT22;70119;45.638;11.714;2023-05-20T11:54:06;25.10;52.60
62575;DHT22;70119;45.638;11.714;2023-05-20T11:56:34;25.10;52.60
62575;DHT22;70119;45.638;11.714;2023-05-20T11:59:04;25.10;52.60
62575;DHT22;70119;45.638;11.714;2023-05-20T12:01:34;25.10;52.60
62575;DHT22;70119;45.638;11.714;2023-05-20T12:04:08;25.10;52.70
62575;DHT22;70119;45.638;11.714;2023-05-20T12:06:34;25.10;52.70
62575;DHT22;70119;45.638;11.714;2023-05-20T12:09:05;25.10;52.70
62575;DHT22;70119;45.638;11.714;2023-05-20T12:11:36;25.10;52.60
62575;DHT22;70119;45.638;11.714;2023-05-20T12:14:03;25.10;52.90
62575;DHT22;70119;45.638;11.714;2023-05-20T12:16:30;25.20;52.80
62575;DHT22;70119;45.638;11.714;2023-05-20T12:18:57;25.10;52.70
62575;DHT22;70119;45.638;11.714;2023-05-20T12:21:23;25.10;52.90
62575;DHT22;70119;45.638;11.714;2023-05-20T12:23:49;25.10;52.80
62575;DHT22;70119;45.638;11.714;2023-05-20T12:26:15;25.10;52.80
62575;DHT22;70119;45.638;11.714;2023-05-20T12:28:41;25.20;52.80
62575;DHT22;70119;45.638;11.714;2023-05-20T12:31:07;25.20;52.80
62575;DHT22;70119;45.638;11.714;2023-05-20T12:33:33;25.10;52.80
62575;DHT22;70119;45.638;11.714;2023-05-20T12:35:59;25.20;52.80
62575;DHT22;70119;45.638;11.714;2023-05-20T12:38:25;25.20;52.80
62575;DHT22;70119;45.638;11.714;2023-05-20T12:40:51;25.20;52.80
62575;DHT22;70119;45.638;11.714;2023-05-20T12:43:17;25.20;52.80
62575;DHT22;70119;45.638;11.714;2023-05-20T12:45:42;25.20;52.80
62575;DHT22;70119;45.638;11.714;2023-05-20T12:48:08;25.20;52.80
62575;DHT22;70119;45.638;11.714;2023-05-20T12:50:34;25.20;52.70
62575;DHT22;70119;45.638;11.714;2023-05-20T12:53:00;25.20;52.70
62575;DHT22;70119;45.638;11.714;2023-05-20T12:55:26;25.20;52.70
62575;DHT22;70119;45.638;11.714;2023-05-20T12:57:53;25.20;52.70
62575;DHT22;70119;45.638;11.714;2023-05-20T13:00:19;25.20;52.70
62575;DHT22;70119;45.638;11.714;2023-05-20T13:02:45;25.20;52.70
62575;DHT22;70119;45.638;11.714;2023-05-20T13:05:12;25.20;52.70
62575;DHT22;70119;45.638;11.714;2023-05-20T13:07:38;25.20;52.70
62575;DHT22;70119;45.638;11.714;2023-05-20T13:10:05;25.20;52.60
62575;DHT22;70119;45.638;11.714;2023-05-20T13:12:33;25.20;52.60
62575;DHT22;70119;45.638;11.714;2023-05-20T13:14:59;25.20;52.60
62575;DHT22;70119;45.638;11.714;2023-05-20T13:17:25;25.30;52.70
62575;DHT22;70119;45.638;11.714;2023-05-20T13:19:51;25.30;52.60
62575;DHT22;70119;45.638;11.714;2023-05-20T13:22:17;25.30;52.60
62575;DHT22;70119;45.638;11.714;2023-05-20T13:24:44;25.30;52.60
62575;DHT22;70119;45.638;11.714;2023-05-20T13:27:10;25.30;52.60
62575;DHT22;70119;45.638;11.714;2023-05-20T13:29:36;25.30;52.60
62575;DHT22;70119;45.638;11.714;2023-05-20T13:32:02;25.20;52.70
62575;DHT22;70119;45.638;11.714;2023-05-20T13:34:29;25.30;52.70
62575;DHT22;70119;45.638;11.714;2023-05-20T13:36:55;25.30;52.60
62575;DHT22;70119;45.638;11.714;2023-05-20T13:39:20;25.30;52.70
62575;DHT22;70119;45.638;11.714;2023-05-20T13:41:46;25.30;52.60
62575;DHT22;70119;45.638;11.714;2023-05-20T13:44:12;25.30;52.60
62575;DHT22;70119;45.638;11.714;2023-05-20T13:46:38;25.30;52.60
62575;DHT22;70119;45.638;11.714;2023-05-20T13:49:04;25.40;52.60
62575;DHT22;70119;45.638;11.714;2023-05-20T13:51:30;25.30;52.60
62575;DHT22;70119;45.638;11.714;2023-05-20T13:53:56;25.30;52.60
62575;DHT22;70119;45.638;11.714;2023-05-20T13:56:22;25.30;52.60
62575;DHT22;70119;45.638;11.714;2023-05-20T13:58:48;25.30;52.60
62575;DHT22;70119;45.638;11.714;2023-05-20T14:01:14;25.30;52.60
62575;DHT22;70119;45.638;11.714;2023-05-20T14:03:40;25.30;52.60
62575;DHT22;70119;45.638;11.714;2023-05-20T14:06:07;25.40;52.60
62575;DHT22;70119;45.638;11.714;2023-05-20T14:08:33;25.30;52.60
62575;DHT22;70119;45.638;11.714;2023-05-20T14:10:59;25.30;52.60
62575;DHT22;70119;45.638;11.714;2023-05-20T14:13:25;25.30;52.60
62575;DHT22;70119;45.638;11.714;2023-05-20T14:15:51;25.30;52.60
62575;DHT22;70119;45.638;11.714;2023-05-20T14:18:19;25.30;52.60
62575;DHT22;70119;45.638;11.714;2023-05-20T14:20:46;25.40;52.60
62575;DHT22;70119;45.638;11.714;2023-05-20T14:23:12;25.30;52.60
62575;DHT22;70119;45.638;11.714;2023-05-20T14:25:38;25.30;52.50
62575;DHT22;70119;45.638;11.714;2023-05-20T14:28:05;25.40;52.60
62575;DHT22;70119;45.638;11.714;2023-05-20T14:30:31;25.30;52.60
62575;DHT22;70119;45.638;11.714;2023-05-20T14:32:57;25.30;52.70
62575;DHT22;70119;45.638;11.714;2023-05-20T14:35:22;25.30;52.70
62575;DHT22;70119;45.638;11.714;2023-05-20T14:37:48;25.30;52.70
62575;DHT22;70119;45.638;11.714;2023-05-20T14:40:14;25.30;52.60
62575;DHT22;70119;45.638;11.714;2023-05-20T14:42:40;25.40;52.60
62575;DHT22;70119;45.638;11.714;2023-05-20T14:45:06;25.40;52.60
62575;DHT22;70119;45.638;11.714;2023-05-20T14:47:32;25.40;52.60
62575;DHT22;70119;45.638;11.714;2023-05-20T14:49:59;25.30;52.60
62575;DHT22;70119;45.638;11.714;2023-05-20T14:52:25;25.40;52.60
62575;DHT22;70119;45.638;11.714;2023-05-20T14:54:51;25.40;52.60
62575;DHT22;70119;45.638;11.714;2023-05-20T14:57:17;25.40;52.60
62575;DHT22;70119;45.638;11.714;2023-05-20T14:59:43;25.30;52.60
62575;DHT22;70119;45.638;11.714;2023-05-20T15:02:09;25.30;52.60
62575;DHT22;70119;45.638;11.714;2023-05-20T15:04:35;25.40;52.60
62575;DHT22;70119;45.638;11.714;2023-05-20T15:07:00;25.40;52.60
62575;DHT22;70119;45.638;11.714;2023-05-20T15:09:26;25.40;52.70
62575;DHT22;70119;45.638;11.714;2023-05-20T15:11:52;25.40;52.60
62575;DHT22;70119;45.638;11.714;2023-05-20T15:14:18;25.40;52.60
62575;DHT22;70119;45.638;11.714;2023-05-20T15:16:44;25.40;52.60
62575;DHT22;70119;45.638;11.714;2023-05-20T15:19:12;25.40;52.60
62575;DHT22;70119;45.638;11.714;2023-05-20T15:21:38;25.40;52.60
62575;DHT22;70119;45.638;11.714;2023-05-20T15:24:05;25.40;52.60